createdAt,value
2022-09-02T00:01:55.278Z,20.70
2022-09-02T00:05:58.493Z,20.60
2022-09-02T00:10:06.132Z,20.60
2022-09-02T00:14:12.822Z,20.60
2022-09-02T00:18:18.158Z,20.60
2022-09-02T00:22:22.411Z,20.60
2022-09-02T00:26:26.016Z,20.60
2022-09-02T00:30:29.191Z,20.60
2022-09-02T00:34:32.961Z,20.60
2022-09-02T00:38:37.207Z,20.60
2022-09-02T00:42:40.661Z,20.60
2022-09-02T00:46:43.882Z,20.60
2022-09-02T00:50:46.685Z,20.50
2022-09-02T00:55:11.632Z,20.50
2022-09-02T00:59:39.508Z,20.50
2022-09-02T01:03:42.698Z,20.50
2022-09-02T01:07:46.956Z,20.50
2022-09-02T01:11:52.850Z,20.40
2022-09-02T01:16:10.685Z,20.40
2022-09-02T01:20:17.604Z,20.50
2022-09-02T01:24:23.079Z,20.50
2022-09-02T01:28:26.559Z,20.40
2022-09-02T01:32:30.993Z,20.40
2022-09-02T01:36:37.769Z,20.40
2022-09-02T01:40:41.268Z,20.30
2022-09-02T01:44:44.211Z,20.40
2022-09-02T01:48:47.477Z,20.30
2022-09-02T01:52:50.411Z,20.30
2022-09-02T01:56:53.356Z,20.30
2022-09-02T02:00:56.783Z,20.20
2022-09-02T02:04:59.921Z,20.20
2022-09-02T02:09:02.656Z,20.20
2022-09-02T02:13:06.174Z,20.10
2022-09-02T02:17:10.813Z,20.10
2022-09-02T02:21:16.272Z,20.00
2022-09-02T02:25:21.384Z,20.00
2022-09-02T02:29:29.135Z,19.90
2022-09-02T02:33:36.451Z,19.80
2022-09-02T02:37:40.489Z,19.80
2022-09-02T02:41:44.881Z,19.60
2022-09-02T02:45:49.205Z,19.50
2022-09-02T02:49:53.133Z,19.50
2022-09-02T02:53:58.854Z,19.30
2022-09-02T02:58:03.092Z,19.20
2022-09-02T03:02:07.304Z,19.30
2022-09-02T03:06:11.346Z,19.30
2022-09-02T03:10:14.785Z,19.30
2022-09-02T03:14:19.716Z,19.40
2022-09-02T03:18:23.393Z,19.50
2022-09-02T03:22:29.546Z,19.50
2022-09-02T03:26:32.880Z,19.50
2022-09-02T03:30:36.487Z,19.60
2022-09-02T03:34:41.857Z,19.60
2022-09-02T03:38:44.661Z,19.70
2022-09-02T03:42:48.156Z,19.60
2022-09-02T03:46:51.976Z,19.70
2022-09-02T03:50:54.744Z,19.70
2022-09-02T03:54:57.718Z,19.70
2022-09-02T03:59:02.541Z,19.70
2022-09-02T04:03:08.572Z,19.60
2022-09-02T04:07:11.912Z,19.60
2022-09-02T04:11:17.884Z,19.50
2022-09-02T04:15:23.550Z,19.50
2022-09-02T04:19:28.883Z,19.40
2022-09-02T04:23:33.727Z,19.40
2022-09-02T04:27:38.484Z,19.40
2022-09-02T04:31:42.645Z,19.50
2022-09-02T04:35:49.093Z,19.40
2022-09-02T04:39:53.075Z,19.30
2022-09-02T04:43:58.245Z,19.20
2022-09-02T04:48:05.526Z,19.10
2022-09-02T04:52:10.549Z,19.00
2022-09-02T04:56:18.573Z,18.80
2022-09-02T05:00:22.618Z,18.80
2022-09-02T05:04:25.510Z,18.70
2022-09-02T05:08:29.347Z,18.60
2022-09-02T05:12:34.576Z,18.50
2022-09-02T05:16:40.641Z,18.70
2022-09-02T05:20:48.843Z,18.80
2022-09-02T05:24:57.508Z,18.80
2022-09-02T05:29:00.946Z,18.70
2022-09-02T05:33:06.092Z,18.50
2022-09-02T05:37:09.550Z,18.50
2022-09-02T05:41:28.437Z,18.60
2022-09-02T05:45:39.044Z,18.60
2022-09-02T05:49:42.284Z,18.50
2022-09-02T05:53:48.848Z,18.60
2022-09-02T05:57:52.306Z,18.70
2022-09-02T06:01:57.012Z,18.80
2022-09-02T06:06:05.923Z,18.80
2022-09-02T06:10:12.648Z,19.00
2022-09-02T06:14:29.208Z,19.20
2022-09-02T06:18:32.827Z,19.60
2022-09-02T06:22:41.812Z,19.90
2022-09-02T06:26:57.415Z,20.10
2022-09-02T06:31:20.135Z,20.50
2022-09-02T06:35:36.747Z,20.90
2022-09-02T06:44:22.377Z,21.50
2022-09-02T06:48:25.733Z,21.60
2022-09-02T06:52:44.138Z,21.60
2022-09-02T06:57:05.578Z,21.60
2022-09-02T07:01:27.176Z,21.90
2022-09-02T07:05:34.234Z,22.00
2022-09-02T07:09:41.091Z,22.20
2022-09-02T07:13:51.530Z,22.10
2022-09-02T07:17:58.420Z,22.10
2022-09-02T07:22:08.560Z,22.20
2022-09-02T07:26:20.386Z,22.50
2022-09-02T07:30:24.133Z,22.70
2022-09-02T07:34:34.228Z,22.80
2022-09-02T07:38:39.839Z,22.80
2022-09-02T07:42:44.115Z,22.80
2022-09-02T07:46:49.393Z,23.00
2022-09-02T07:50:55.731Z,23.00
2022-09-02T07:55:00.498Z,23.00
2022-09-02T07:59:04.593Z,23.00
2022-09-02T08:03:10.390Z,23.00
2022-09-02T08:07:24.124Z,23.10
2022-09-02T08:11:27.090Z,23.30
2022-09-02T08:15:36.036Z,23.40
2022-09-02T08:19:40.853Z,23.70
2022-09-02T08:23:52.795Z,23.80
2022-09-02T08:33:14.500Z,24.20
2022-09-02T08:37:19.323Z,24.10
2022-09-02T08:48:12.659Z,24.40
2022-09-02T08:52:57.341Z,24.50
2022-09-02T08:57:28.158Z,24.50
2022-09-02T09:02:23.983Z,24.70
2022-09-02T09:07:13.033Z,25.20
2022-09-02T09:20:57.479Z,25.90
2022-09-02T09:25:01.181Z,26.00
2022-09-02T09:29:07.516Z,26.20
2022-09-02T09:33:22.776Z,26.20
2022-09-02T09:37:43.767Z,26.20
2022-09-02T09:41:49.045Z,26.10
2022-09-02T09:45:56.165Z,26.20
2022-09-02T09:50:17.209Z,26.40
2022-09-02T09:54:20.172Z,26.80
2022-09-02T09:58:47.431Z,27.00
2022-09-02T10:02:53.551Z,27.10
2022-09-02T10:06:57.830Z,27.00
2022-09-02T10:11:19.490Z,27.10
2022-09-02T10:15:54.955Z,27.20
2022-09-02T10:20:06.821Z,27.30
2022-09-02T10:24:51.299Z,27.30
2022-09-02T10:29:09.220Z,27.30
2022-09-02T10:33:17.917Z,27.40
2022-09-02T10:37:24.419Z,27.50
2022-09-02T10:41:34.105Z,27.50
2022-09-02T10:45:47.094Z,27.60
2022-09-02T10:50:08.644Z,27.70
2022-09-02T10:54:34.669Z,27.70
2022-09-02T10:59:07.066Z,27.80
2022-09-02T11:03:25.988Z,27.90
2022-09-02T11:07:49.602Z,28.00
2022-09-02T11:12:22.433Z,28.00
2022-09-02T11:20:54.438Z,28.20
2022-09-02T11:25:30.192Z,28.40
2022-09-02T11:29:38.867Z,28.60
2022-09-02T11:34:21.150Z,28.50
2022-09-02T11:38:47.567Z,28.80
2022-09-02T11:42:59.017Z,28.80
2022-09-02T11:47:05.218Z,28.90
2022-09-02T11:51:30.374Z,28.80
2022-09-02T11:56:00.650Z,28.80
2022-09-02T12:00:07.324Z,28.70
2022-09-02T12:04:58.216Z,28.90
2022-09-02T12:08:43.210Z,29.30
2022-09-02T12:12:51.831Z,29.40
2022-09-02T12:17:07.050Z,29.60
2022-09-02T12:21:16.522Z,29.80
2022-09-02T12:25:27.341Z,30.10
2022-09-02T12:29:34.696Z,30.40
2022-09-02T12:33:44.138Z,30.60
2022-09-02T12:37:56.029Z,30.70
2022-09-02T12:42:04.681Z,30.80
2022-09-02T12:46:17.939Z,30.60
2022-09-02T12:50:48.832Z,30.50
2022-09-02T12:54:51.950Z,30.30
2022-09-02T12:59:01.684Z,30.40
2022-09-02T13:03:43.199Z,30.50
2022-09-02T13:08:14.944Z,30.20
2022-09-02T13:12:45.884Z,30.00
2022-09-02T13:17:37.192Z,30.10
2022-09-02T13:21:52.175Z,30.10
2022-09-02T13:26:39.157Z,29.70
2022-09-02T13:31:11.999Z,29.80
2022-09-02T13:35:26.476Z,29.90
2022-09-02T13:39:29.348Z,29.80
2022-09-02T13:43:32.657Z,29.60
2022-09-02T13:47:35.974Z,29.50
2022-09-02T13:51:45.430Z,29.40
2022-09-02T13:55:52.339Z,29.60
2022-09-02T13:59:57.258Z,29.90
2022-09-02T14:04:14.954Z,30.00
2022-09-02T14:08:29.198Z,30.30
2022-09-02T14:12:35.020Z,30.50
2022-09-02T14:16:37.798Z,30.70
2022-09-02T14:21:04.088Z,30.90
2022-09-02T14:25:14.443Z,30.90
2022-09-02T14:29:19.278Z,30.90
2022-09-02T14:33:28.073Z,30.90
2022-09-02T14:37:32.316Z,31.00
2022-09-02T14:41:38.345Z,31.00
2022-09-02T14:45:44.227Z,30.90
2022-09-02T14:49:49.922Z,30.80
2022-09-02T14:53:52.650Z,30.90
2022-09-02T14:58:02.943Z,31.00
2022-09-02T15:02:06.051Z,31.00
2022-09-02T15:06:13.086Z,31.00
2022-09-02T15:10:18.050Z,31.00
2022-09-02T15:14:20.768Z,30.80
2022-09-02T15:18:24.332Z,30.90
2022-09-02T15:22:27.776Z,31.00
2022-09-02T15:26:30.536Z,30.90
2022-09-02T15:30:36.914Z,30.90
2022-09-02T15:34:39.986Z,30.80
2022-09-02T15:38:42.932Z,30.90
2022-09-02T15:42:45.654Z,31.00
2022-09-02T15:46:48.449Z,31.10
2022-09-02T15:50:54.341Z,31.20
2022-09-02T15:54:57.362Z,31.30
2022-09-02T15:59:25.418Z,31.40
2022-09-02T16:03:28.157Z,31.50
2022-09-02T16:07:31.291Z,31.50
2022-09-02T16:11:37.409Z,31.40
2022-09-02T16:15:40.857Z,31.50
2022-09-02T16:19:43.801Z,31.20
2022-09-02T16:23:46.640Z,31.00
2022-09-02T16:27:54.909Z,30.90
2022-09-02T16:32:14.489Z,30.70
2022-09-02T16:36:21.558Z,30.50
2022-09-02T16:40:24.606Z,30.40
2022-09-02T16:44:28.887Z,30.20
2022-09-02T16:48:35.808Z,30.00
2022-09-02T16:52:39.434Z,30.00
2022-09-02T16:56:42.285Z,29.70
2022-09-02T17:00:45.329Z,29.50
2022-09-02T17:04:48.035Z,29.40
2022-09-02T17:08:50.791Z,29.20
2022-09-02T17:12:55.261Z,29.00
2022-09-02T17:16:58.731Z,28.90
2022-09-02T17:21:18.778Z,28.60
2022-09-02T17:25:21.558Z,28.40
2022-09-02T17:29:49.096Z,28.00
2022-09-02T17:33:54.699Z,27.80
2022-09-02T17:37:57.836Z,27.50
2022-09-02T17:42:00.746Z,27.30
2022-09-02T17:46:09.694Z,27.00
2022-09-02T17:50:16.002Z,26.80
2022-09-02T17:54:20.683Z,26.60
2022-09-02T17:58:25.348Z,26.40
2022-09-02T18:03:24.623Z,26.30
2022-09-02T18:07:50.728Z,26.20
2022-09-02T18:11:53.760Z,26.00
2022-09-02T18:16:26.862Z,25.90
2022-09-02T18:20:43.439Z,25.80
2022-09-02T18:25:04.387Z,25.80
2022-09-02T18:29:28.894Z,25.80
2022-09-02T18:34:01.805Z,25.70
2022-09-02T18:38:22.481Z,25.60
2022-09-02T18:43:03.795Z,25.50
2022-09-02T18:47:22.892Z,25.50
2022-09-02T18:51:33.655Z,25.30
2022-09-02T18:55:40.405Z,25.10
2022-09-02T18:59:46.790Z,25.00
2022-09-02T19:03:54.623Z,25.00
2022-09-02T19:08:21.339Z,25.00
2022-09-02T19:12:32.038Z,24.90
2022-09-02T19:16:39.195Z,24.70
2022-09-02T19:20:42.191Z,24.50
2022-09-02T19:24:58.032Z,24.50
2022-09-02T19:29:09.923Z,24.50
2022-09-02T19:33:16.518Z,24.40
2022-09-02T19:37:20.823Z,24.30
2022-09-02T19:41:28.082Z,24.40
2022-09-02T19:45:37.475Z,24.30
2022-09-02T19:49:42.119Z,24.30
2022-09-02T19:53:47.576Z,24.10
2022-09-02T19:57:53.381Z,24.10
2022-09-02T20:01:57.414Z,24.00
2022-09-02T20:06:00.923Z,23.90
2022-09-02T20:10:06.354Z,23.80
2022-09-02T20:14:11.027Z,23.60
2022-09-02T20:18:16.843Z,23.50
2022-09-02T20:22:19.740Z,23.40
2022-09-02T20:26:44.697Z,23.50
2022-09-02T20:30:53.248Z,23.20
2022-09-02T20:35:08.177Z,23.00
2022-09-02T20:39:53.176Z,23.00
2022-09-02T20:44:19.381Z,23.00
2022-09-02T20:48:52.882Z,23.00
2022-09-02T20:53:01.882Z,23.00
2022-09-02T20:57:31.660Z,23.10
2022-09-02T21:01:43.368Z,23.30
2022-09-02T21:05:52.702Z,23.40
2022-09-02T21:10:12.599Z,23.50
2022-09-02T21:14:25.829Z,23.70
2022-09-02T21:19:04.536Z,23.80
2022-09-02T21:23:44.805Z,23.90
2022-09-02T21:28:07.814Z,24.00
2022-09-02T21:32:44.592Z,24.00
2022-09-02T21:36:50.955Z,24.00
2022-09-02T21:41:54.327Z,24.00
2022-09-02T21:46:24.288Z,24.00
2022-09-02T21:50:40.171Z,24.00
2022-09-02T21:55:41.990Z,24.00
2022-09-02T22:00:16.069Z,24.00
2022-09-02T22:04:58.960Z,23.80
2022-09-02T22:09:19.323Z,23.80
2022-09-02T22:13:22.602Z,23.70
2022-09-02T22:17:46.516Z,23.50
2022-09-02T22:22:20.668Z,23.40
2022-09-02T22:26:48.310Z,23.10
2022-09-02T22:31:02.315Z,23.00
2022-09-02T22:35:32.045Z,22.90
2022-09-02T22:39:56.675Z,22.80
2022-09-02T22:44:11.530Z,22.70
2022-09-02T22:48:39.810Z,22.60
2022-09-02T22:53:11.845Z,22.50
2022-09-02T22:57:39.686Z,22.40
2022-09-02T23:01:54.934Z,22.30
2022-09-02T23:05:57.835Z,22.00
2022-09-02T23:10:21.036Z,22.00
2022-09-02T23:14:30.701Z,21.80
2022-09-02T23:19:01.554Z,21.70
2022-09-02T23:23:17.972Z,21.60
2022-09-02T23:27:44.154Z,21.50
2022-09-02T23:32:02.081Z,21.50
2022-09-02T23:36:16.709Z,21.40
2022-09-02T23:40:59.962Z,21.40
2022-09-02T23:45:32.044Z,21.40
2022-09-02T23:49:52.218Z,21.40
2022-09-02T23:54:09.385Z,21.30
2022-09-02T23:58:34.970Z,21.10
